Time;durP1;ratioP1;P1;durP2;ratioP2;P2;SDS_P1;SDS_P2;PMS_P1;PMS_P2;Temp;Humidity;BMP_temperature;BMP_pressure;BME280_temperature;BME280_humidity;BME280_pressure;Samples;Min_cycle;Max_cycle;Signal;HPM_P1;HPM_P2
2023/04/30 00:02:10;;;;;;;8.23;1.58;;;;;;;5.69;100.00;101390.13;4922479;29;20161;-69
2023/04/30 00:04:37;;;;;;;11.48;1.95;;;;;;;5.66;100.00;101395.66;4934225;29;20052;-70
2023/04/30 00:07:03;;;;;;;14.45;2.78;;;;;;;5.56;100.00;101392.00;4933636;29;20044;-70
2023/04/30 00:09:30;;;;;;;11.45;2.63;;;;;;;5.60;100.00;101397.94;4934290;29;20048;-69
2023/04/30 00:11:56;;;;;;;15.52;2.28;;;;;;;5.54;100.00;101385.91;4934081;29;20122;-71
2023/04/30 00:14:23;;;;;;;9.57;1.80;;;;;;;5.51;100.00;101394.13;4933494;29;20044;-70
2023/04/30 00:16:50;;;;;;;7.25;1.73;;;;;;;5.55;100.00;101395.59;4931422;29;20416;-71
2023/04/30 00:19:16;;;;;;;6.47;1.70;;;;;;;5.47;100.00;101395.31;4933040;29;20162;-70
2023/04/30 00:21:43;;;;;;;8.02;2.05;;;;;;;5.42;100.00;101394.78;4933847;29;20058;-71
2023/04/30 00:24:09;;;;;;;9.10;1.98;;;;;;;5.40;100.00;101402.88;4932886;29;20432;-71
2023/04/30 00:26:36;;;;;;;14.32;2.13;;;;;;;5.44;100.00;101407.03;4933550;29;20051;-71
2023/04/30 00:29:02;;;;;;;6.10;1.77;;;;;;;5.39;100.00;101406.50;4933310;29;20049;-70
2023/04/30 00:31:29;;;;;;;12.88;2.25;;;;;;;5.39;100.00;101400.34;4917961;29;20127;-71
2023/04/30 00:33:56;;;;;;;13.93;2.53;;;;;;;5.42;100.00;101400.09;4913765;29;20098;-70
2023/04/30 00:36:22;;;;;;;10.10;2.28;;;;;;;5.39;100.00;101409.19;4905233;29;20103;-70
2023/04/30 00:38:49;;;;;;;8.00;2.03;;;;;;;5.37;100.00;101410.25;4912926;29;20509;-71
2023/04/30 00:41:17;;;;;;;8.52;2.42;;;;;;;5.29;100.00;101416.09;4914286;29;20052;-70
2023/04/30 00:43:45;;;;;;;19.85;2.33;;;;;;;5.33;100.00;101422.91;4914030;29;20119;-70
2023/04/30 00:46:12;;;;;;;11.05;3.78;;;;;;;5.30;100.00;101415.13;4912874;29;20130;-70
2023/04/30 00:48:38;;;;;;;17.27;3.45;;;;;;;5.23;100.00;101424.50;4913999;29;20056;-70
2023/04/30 00:51:05;;;;;;;14.73;3.13;;;;;;;5.20;100.00;101422.91;4914932;29;20052;-70
2023/04/30 00:53:32;;;;;;;15.15;3.13;;;;;;;5.16;100.00;101434.75;4914635;29;20051;-70
2023/04/30 00:55:58;;;;;;;9.07;2.40;;;;;;;5.17;100.00;101433.78;4914790;29;20044;-70
2023/04/30 00:58:25;;;;;;;17.13;3.05;;;;;;;5.14;100.00;101441.13;4914968;29;20052;-70
2023/04/30 01:00:52;;;;;;;11.18;2.38;;;;;;;5.08;100.00;101444.22;4913893;29;20055;-70
2023/04/30 01:03:19;;;;;;;8.90;2.22;;;;;;;5.03;100.00;101452.50;4914837;29;20123;-70
2023/04/30 01:09:26;;;;;;;16.58;2.80;;;;;;;4.92;100.00;101457.72;4915318;29;20101;-70
2023/04/30 01:12:12;;;;;;;13.50;3.15;;;;;;;4.86;100.00;101460.78;4915497;29;20048;-70
2023/04/30 01:14:52;;;;;;;16.42;2.47;;;;;;;4.87;100.00;101467.81;4914505;29;20075;-70
2023/04/30 01:17:37;;;;;;;12.52;2.38;;;;;;;4.86;100.00;101471.41;4914073;29;20135;-70
2023/04/30 01:20:06;;;;;;;24.13;3.63;;;;;;;4.87;100.00;101465.13;4914493;29;20068;-70
2023/04/30 01:22:52;;;;;;;18.35;2.67;;;;;;;4.68;100.00;101468.22;4915229;29;20052;-70
2023/04/30 01:26:05;;;;;;;13.93;2.53;;;;;;;4.75;100.00;101475.66;4897384;29;20048;-70
2023/04/30 01:28:35;;;;;;;14.10;2.95;;;;;;;4.65;100.00;101469.25;4904838;29;20055;-70
2023/04/30 01:31:02;;;;;;;15.02;3.15;;;;;;;4.66;100.00;101471.00;4913260;29;20048;-71
2023/04/30 01:33:28;;;;;;;15.27;2.90;;;;;;;4.69;100.00;101475.22;4913937;29;20063;-70
2023/04/30 01:36:26;;;;;;;16.67;3.38;;;;;;;4.71;100.00;101470.66;4915874;29;20044;-70
2023/04/30 01:39:10;;;;;;;9.80;2.60;;;;;;;4.66;100.00;101472.78;4914230;29;20055;-70
2023/04/30 01:41:43;;;;;;;25.92;3.47;;;;;;;4.61;100.00;101462.47;4914631;29;20432;-70
2023/04/30 01:44:39;;;;;;;10.98;3.08;;;;;;;4.61;100.00;101473.09;4913868;29;20062;-70
2023/04/30 01:47:25;;;;;;;26.40;3.58;;;;;;;4.58;100.00;101474.13;4914449;29;20446;-70
2023/04/30 01:50:29;;;;;;;11.98;3.38;;;;;;;4.57;100.00;101487.53;4913972;29;20048;-70
2023/04/30 01:53:01;;;;;;;12.75;2.22;;;;;;;4.46;100.00;101485.59;4914888;29;20055;-70
2023/04/30 01:55:40;;;;;;;19.55;3.25;;;;;;;4.52;100.00;101490.50;4914019;29;20064;-70
2023/04/30 01:58:10;;;;;;;15.98;2.50;;;;;;;4.45;100.00;101493.66;4915007;29;20052;-70
2023/04/30 02:00:37;;;;;;;12.15;2.50;;;;;;;4.51;100.00;101501.22;4913944;29;20050;-70
2023/04/30 02:03:03;;;;;;;17.50;2.50;;;;;;;4.47;100.00;101502.41;4913512;29;20536;-70
2023/04/30 02:05:30;;;;;;;13.25;3.03;;;;;;;4.41;100.00;101502.78;4913375;29;20058;-70
2023/04/30 02:07:56;;;;;;;15.82;2.45;;;;;;;4.49;100.00;101504.00;4914966;29;20519;-70
2023/04/30 02:10:25;;;;;;;15.77;2.40;;;;;;;4.40;100.00;101511.72;4914526;29;20044;-70
2023/04/30 02:12:52;;;;;;;18.85;3.05;;;;;;;4.41;100.00;101511.59;4914233;29;20048;-70
2023/04/30 02:15:18;;;;;;;12.85;2.50;;;;;;;4.28;100.00;101516.88;4913231;29;20044;-70
2023/04/30 02:17:45;;;;;;;21.50;3.08;;;;;;;4.25;100.00;101525.03;4913998;29;20070;-70
2023/04/30 02:20:11;;;;;;;14.43;2.70;;;;;;;4.26;100.00;101515.25;4913504;29;20413;-70
2023/04/30 02:22:38;;;;;;;11.80;2.75;;;;;;;4.27;100.00;101516.94;4913964;29;20063;-70
2023/04/30 02:25:05;;;;;;;14.98;2.97;;;;;;;4.20;100.00;101519.13;4913966;29;20107;-70
2023/04/30 02:27:33;;;;;;;14.90;2.45;;;;;;;4.20;100.00;101519.13;4914417;29;20070;-70
2023/04/30 02:29:59;;;;;;;14.60;3.05;;;;;;;4.14;100.00;101516.03;4913367;29;20055;-70
2023/04/30 02:32:26;;;;;;;17.20;2.92;;;;;;;4.12;100.00;101524.09;4916200;29;20151;-70
2023/04/30 02:34:53;;;;;;;9.77;2.65;;;;;;;4.09;100.00;101534.91;4911835;29;20048;-70
2023/04/30 02:37:19;;;;;;;11.43;2.88;;;;;;;4.12;100.00;101524.09;4914343;29;20052;-70
2023/04/30 02:39:47;;;;;;;15.13;3.10;;;;;;;4.11;100.00;101530.38;4914440;29;20048;-70
2023/04/30 02:42:14;;;;;;;11.18;2.65;;;;;;;3.96;100.00;101534.84;4912842;29;20052;-70
2023/04/30 02:44:40;;;;;;;14.70;2.20;;;;;;;3.87;100.00;101535.44;4913314;29;20063;-70
2023/04/30 02:47:07;;;;;;;10.27;2.80;;;;;;;3.84;100.00;101533.81;4914317;29;20468;-70
2023/04/30 02:49:33;;;;;;;14.60;2.70;;;;;;;3.85;100.00;101538.19;4914364;29;20489;-70
2023/04/30 02:52:00;;;;;;;13.63;3.22;;;;;;;3.83;100.00;101545.41;4918479;29;20052;-69
2023/04/30 02:54:27;;;;;;;15.93;2.78;;;;;;;3.80;100.00;101544.75;4918559;29;20044;-70
2023/04/30 02:56:53;;;;;;;15.25;2.83;;;;;;;3.78;100.00;101542.16;4911629;29;20058;-70
2023/04/30 02:59:20;;;;;;;13.85;2.67;;;;;;;3.69;100.00;101541.88;4916894;29;20407;-69
2023/04/30 03:01:46;;;;;;;13.18;2.78;;;;;;;3.72;100.00;101545.19;4918041;29;20075;-70
2023/04/30 03:04:13;;;;;;;14.02;3.08;;;;;;;3.68;100.00;101551.66;4917351;29;20048;-69
2023/04/30 03:06:39;;;;;;;20.52;3.28;;;;;;;3.65;100.00;101554.50;4917768;29;20424;-69
2023/04/30 03:09:07;;;;;;;24.83;3.70;;;;;;;3.58;100.00;101564.63;4916587;29;20052;-70
2023/04/30 03:11:36;;;;;;;9.48;3.33;;;;;;;3.50;100.00;101561.59;4917018;29;20048;-70
2023/04/30 03:14:03;;;;;;;9.70;3.22;;;;;;;3.42;100.00;101560.38;4917277;29;20138;-74
2023/04/30 03:16:30;;;;;;;13.52;3.22;;;;;;;3.47;100.00;101566.25;4916472;29;20442;-74
2023/04/30 03:18:57;;;;;;;15.60;3.28;;;;;;;3.46;100.00;101572.50;4917747;29;20056;-74
2023/04/30 03:21:23;;;;;;;10.35;2.70;;;;;;;3.41;100.00;101575.41;4938375;29;20072;-71
2023/04/30 03:23:50;;;;;;;10.52;2.72;;;;;;;3.34;100.00;101580.25;4940361;29;20124;-71
2023/04/30 03:26:19;;;;;;;8.63;2.72;;;;;;;3.34;100.00;101582.03;4940453;29;20032;-72
2023/04/30 03:28:46;;;;;;;7.38;3.20;;;;;;;3.20;100.00;101582.00;4941270;29;20040;-71
2023/04/30 03:31:12;;;;;;;14.77;3.20;;;;;;;3.22;100.00;101581.00;4940357;29;20066;-71
2023/04/30 03:33:39;;;;;;;9.57;2.97;;;;;;;3.19;100.00;101572.38;4940809;29;20044;-71
2023/04/30 03:36:06;;;;;;;11.73;3.17;;;;;;;2.98;100.00;101571.84;4939500;29;20031;-72
2023/04/30 03:38:32;;;;;;;15.57;3.17;;;;;;;3.02;100.00;101574.22;4932200;29;20051;-74
2023/04/30 03:40:59;;;;;;;12.50;3.45;;;;;;;2.97;100.00;101575.44;4914156;29;20067;-74
2023/04/30 03:43:25;;;;;;;8.88;3.20;;;;;;;2.89;100.00;101584.69;4915064;29;20063;-74
2023/04/30 03:45:52;;;;;;;9.52;3.00;;;;;;;3.02;100.00;101581.31;4915941;29;25483;-75
2023/04/30 03:48:19;;;;;;;13.13;3.67;;;;;;;2.95;100.00;101588.75;4915235;29;20055;-75
2023/04/30 03:50:46;;;;;;;11.35;3.33;;;;;;;3.01;100.00;101593.72;4916109;29;20059;-74
2023/04/30 03:53:12;;;;;;;12.52;3.40;;;;;;;3.06;100.00;101588.97;4907840;29;20397;-75
2023/04/30 03:55:39;;;;;;;10.27;3.45;;;;;;;3.03;100.00;101596.25;4915417;29;20052;-75
2023/04/30 03:58:05;;;;;;;8.20;2.97;;;;;;;3.00;100.00;101597.31;4914661;29;20051;-72
2023/04/30 04:00:32;;;;;;;15.73;3.50;;;;;;;2.95;100.00;101598.53;4914906;29;20044;-75
2023/04/30 04:02:58;;;;;;;11.68;3.88;;;;;;;2.90;100.00;101604.94;4903765;29;20048;-74
2023/04/30 04:05:25;;;;;;;10.52;2.85;;;;;;;2.96;100.00;101610.81;4913086;29;21010;-73
2023/04/30 04:07:52;;;;;;;9.68;3.25;;;;;;;2.91;100.00;101619.91;4913674;29;20434;-73
2023/04/30 04:10:18;;;;;;;15.90;3.70;;;;;;;2.93;100.00;101617.19;4896715;29;20241;-73
2023/04/30 04:12:45;;;;;;;11.43;3.30;;;;;;;2.93;100.00;101614.53;4914076;29;20056;-75
2023/04/30 04:15:12;;;;;;;12.07;3.00;;;;;;;2.97;100.00;101613.41;4914743;29;20126;-75
2023/04/30 04:17:38;;;;;;;18.60;4.22;;;;;;;2.96;100.00;101622.28;4916798;29;20048;-70
2023/04/30 04:20:06;;;;;;;14.40;4.60;;;;;;;3.02;100.00;101618.41;4921882;29;20055;-70
2023/04/30 04:22:32;;;;;;;14.88;3.08;;;;;;;2.98;100.00;101619.53;4922153;29;20044;-71
2023/04/30 04:25:00;;;;;;;18.08;3.33;;;;;;;3.06;100.00;101622.59;4920988;29;20073;-71
2023/04/30 04:27:26;;;;;;;12.50;3.15;;;;;;;3.07;100.00;101624.31;4921917;29;20509;-71
2023/04/30 04:29:53;;;;;;;23.05;3.47;;;;;;;3.18;100.00;101626.34;4910613;23;20135;-70
2023/04/30 04:32:21;;;;;;;17.23;3.35;;;;;;;3.23;100.00;101630.41;4922462;29;20055;-70
2023/04/30 04:34:48;;;;;;;15.00;3.30;;;;;;;3.29;100.00;101630.06;4922899;29;20059;-70
2023/04/30 04:37:16;;;;;;;11.27;2.92;;;;;;;3.38;100.00;101626.03;4922055;29;20052;-71
2023/04/30 04:39:43;;;;;;;17.45;5.55;;;;;;;3.59;100.00;101638.00;4898248;29;20056;-70
2023/04/30 04:42:10;;;;;;;13.70;4.68;;;;;;;3.72;100.00;101637.22;4914621;29;20055;-71
2023/04/30 04:44:37;;;;;;;16.00;5.20;;;;;;;3.76;100.00;101638.75;4914158;29;20051;-71
2023/04/30 04:47:04;;;;;;;17.95;4.97;;;;;;;3.72;100.00;101643.41;4927276;29;20028;-70
2023/04/30 04:49:30;;;;;;;16.52;3.53;;;;;;;3.80;100.00;101645.59;4938728;29;20028;-69
2023/04/30 04:51:57;;;;;;;19.23;3.58;;;;;;;3.75;100.00;101653.81;4938188;29;20076;-70
2023/04/30 04:54:23;;;;;;;14.40;3.45;;;;;;;3.86;100.00;101651.41;4938542;29;20036;-71
2023/04/30 04:56:50;;;;;;;9.25;3.10;;;;;;;3.96;100.00;101661.44;4936840;29;20048;-70
2023/04/30 04:59:17;;;;;;;14.15;2.97;;;;;;;3.93;100.00;101662.50;4935630;29;20025;-71
2023/04/30 05:01:44;;;;;;;16.30;3.55;;;;;;;4.05;100.00;101666.19;4940299;29;20042;-70
2023/04/30 05:04:12;;;;;;;11.68;3.13;;;;;;;4.21;100.00;101672.25;4949282;29;20124;-70
2023/04/30 05:06:40;;;;;;;15.52;3.15;;;;;;;4.10;100.00;101672.06;4932185;29;20047;-70
2023/04/30 05:09:08;;;;;;;15.05;3.42;;;;;;;4.16;100.00;101668.16;4932524;29;20066;-70
2023/04/30 05:11:35;;;;;;;9.73;2.90;;;;;;;4.16;100.00;101669.03;4933780;29;20175;-74
2023/04/30 05:14:01;;;;;;;16.27;3.20;;;;;;;4.38;100.00;101678.31;4929942;29;20047;-74
2023/04/30 05:16:28;;;;;;;12.57;3.75;;;;;;;4.23;100.00;101678.31;4931706;29;20043;-74
2023/04/30 05:18:55;;;;;;;13.20;3.53;;;;;;;4.36;100.00;101685.53;4915378;29;20051;-74
2023/04/30 05:21:22;;;;;;;18.23;5.47;;;;;;;4.33;100.00;101692.72;4931134;29;20111;-74
2023/04/30 05:23:48;;;;;;;15.85;4.30;;;;;;;4.48;100.00;101685.63;4932961;29;20079;-74
2023/04/30 05:26:15;;;;;;;14.70;4.07;;;;;;;4.45;100.00;101695.59;4930737;29;20058;-73
2023/04/30 05:28:41;;;;;;;17.65;4.13;;;;;;;4.47;100.00;101689.25;4932613;29;20052;-74
2023/04/30 05:31:08;;;;;;;16.02;3.67;;;;;;;4.47;100.00;101696.34;4919811;29;20465;-72
2023/04/30 05:33:35;;;;;;;18.75;5.22;;;;;;;4.51;100.00;101703.19;4914101;29;20101;-75
2023/04/30 05:36:02;;;;;;;16.45;4.57;;;;;;;4.58;100.00;101701.84;4913431;29;20055;-74
2023/04/30 05:38:29;;;;;;;20.08;3.90;;;;;;;4.70;100.00;101708.19;4913351;29;20115;-75
2023/04/30 05:40:55;;;;;;;20.58;4.50;;;;;;;4.50;100.00;101705.00;4913865;29;20056;-74
2023/04/30 05:43:22;;;;;;;14.65;3.75;;;;;;;4.54;100.00;101703.84;4912844;29;20067;-74
2023/04/30 05:45:48;;;;;;;19.52;4.78;;;;;;;4.56;100.00;101709.94;4914141;29;20136;-74
2023/04/30 05:48:15;;;;;;;13.48;3.42;;;;;;;4.54;100.00;101713.63;4913073;29;20048;-74
2023/04/30 05:50:42;;;;;;;16.73;4.57;;;;;;;4.61;100.00;101706.97;4913170;29;20052;-75
2023/04/30 05:53:09;;;;;;;21.60;4.57;;;;;;;4.70;100.00;101716.19;4913164;29;20060;-74
2023/04/30 05:55:36;;;;;;;17.80;4.30;;;;;;;4.79;100.00;101721.72;4913903;29;20040;-75
2023/04/30 05:58:02;;;;;;;15.52;3.60;;;;;;;4.88;100.00;101719.44;4913502;29;20050;-75
2023/04/30 06:00:29;;;;;;;18.42;3.67;;;;;;;5.00;100.00;101713.31;4913706;29;20415;-74
2023/04/30 06:02:55;;;;;;;16.23;3.83;;;;;;;5.10;100.00;101725.06;4912804;29;20056;-74
2023/04/30 06:05:22;;;;;;;24.60;3.95;;;;;;;5.29;100.00;101725.59;4913004;29;20055;-75
2023/04/30 06:07:49;;;;;;;12.82;4.03;;;;;;;5.38;100.00;101721.44;4913654;29;20143;-73
2023/04/30 06:10:15;;;;;;;18.90;4.35;;;;;;;5.38;100.00;101724.09;4912334;29;20131;-75
2023/04/30 06:12:42;;;;;;;19.20;3.90;;;;;;;5.58;100.00;101730.75;4913329;29;20427;-73
2023/04/30 06:15:08;;;;;;;15.88;4.47;;;;;;;5.67;100.00;101734.63;4913787;29;20051;-70
2023/04/30 06:17:35;;;;;;;18.75;3.67;;;;;;;5.62;100.00;101736.72;4913378;29;20156;-74
2023/04/30 06:20:05;;;;;;;12.70;3.97;;;;;;;5.65;100.00;101740.03;4913544;29;20050;-73
2023/04/30 06:22:33;;;;;;;17.40;4.68;;;;;;;5.88;100.00;101740.31;4912732;29;20052;-73
2023/04/30 06:24:59;;;;;;;15.43;3.58;;;;;;;5.99;100.00;101746.59;4915540;29;20080;-72
2023/04/30 06:27:31;;;;;;;21.58;4.75;;;;;;;6.02;100.00;101740.22;4917670;29;20072;-73
2023/04/30 06:29:59;;;;;;;21.77;4.65;;;;;;;5.92;100.00;101749.78;4917275;29;20565;-73
2023/04/30 06:32:26;;;;;;;22.98;4.43;;;;;;;6.29;100.00;101755.25;4916465;29;20573;-74
2023/04/30 06:34:54;;;;;;;18.38;4.32;;;;;;;6.19;100.00;101755.88;4916261;29;20086;-75
2023/04/30 06:37:20;;;;;;;12.50;3.90;;;;;;;6.44;100.00;101762.19;4917048;29;20082;-75
2023/04/30 06:39:47;;;;;;;15.50;3.67;;;;;;;6.53;100.00;101758.91;4917610;29;20056;-69
2023/04/30 06:42:14;;;;;;;15.18;3.65;;;;;;;6.80;100.00;101768.53;4916944;29;20048;-69
2023/04/30 06:44:41;;;;;;;13.75;4.03;;;;;;;7.00;100.00;101765.28;4917965;29;20052;-70
2023/04/30 06:47:07;;;;;;;19.60;4.00;;;;;;;6.94;100.00;101757.72;4917959;29;20570;-70
2023/04/30 06:49:34;;;;;;;12.60;3.45;;;;;;;7.22;100.00;101759.22;4917112;29;20040;-69
2023/04/30 06:52:00;;;;;;;12.90;4.45;;;;;;;7.58;98.23;101755.66;4916884;29;20409;-70
2023/04/30 06:54:27;;;;;;;20.88;4.10;;;;;;;7.76;90.77;101765.91;4916907;29;20478;-71
2023/04/30 06:56:53;;;;;;;16.77;4.30;;;;;;;7.87;88.48;101764.13;4916507;29;20060;-70
2023/04/30 06:59:20;;;;;;;14.30;3.60;;;;;;;8.13;86.53;101762.16;4916473;29;20055;-71
2023/04/30 07:01:46;;;;;;;17.02;5.45;;;;;;;8.17;88.49;101753.91;4916819;29;20083;-71
2023/04/30 07:04:13;;;;;;;16.63;5.13;;;;;;;8.24;85.66;101750.63;4915211;29;20044;-71
2023/04/30 07:06:40;;;;;;;21.23;3.88;;;;;;;8.52;82.27;101760.00;4916522;29;20417;-71
2023/04/30 07:09:06;;;;;;;18.88;4.88;;;;;;;8.44;81.34;101756.25;4917866;29;20154;-71
2023/04/30 07:11:33;;;;;;;21.77;5.03;;;;;;;8.94;78.74;101762.88;4916961;29;20059;-71
2023/04/30 07:14:00;;;;;;;20.70;4.47;;;;;;;9.38;75.08;101760.25;4916529;29;20138;-71
2023/04/30 07:16:26;;;;;;;14.88;4.20;;;;;;;9.19;74.88;101750.16;4916868;29;20164;-71
2023/04/30 07:18:53;;;;;;;10.98;3.60;;;;;;;9.41;71.40;101757.34;4916426;29;20054;-71
2023/04/30 07:21:20;;;;;;;14.18;3.67;;;;;;;9.72;70.39;101750.25;4916770;29;20417;-70
2023/04/30 07:23:47;;;;;;;17.17;3.92;;;;;;;9.45;70.57;101753.41;4909323;29;20056;-71
2023/04/30 07:26:14;;;;;;;12.40;3.40;;;;;;;9.87;69.24;101746.25;4915293;29;20048;-71
2023/04/30 07:28:41;;;;;;;16.70;3.78;;;;;;;10.14;68.09;101755.63;4915857;29;20056;-71
2023/04/30 07:31:07;;;;;;;16.15;3.97;;;;;;;10.37;66.14;101753.59;4917078;29;20075;-68
2023/04/30 07:33:34;;;;;;;15.05;4.47;;;;;;;10.61;64.97;101750.63;4915528;29;20127;-71
2023/04/30 07:36:00;;;;;;;16.25;3.50;;;;;;;10.90;63.65;101750.75;4914540;29;20056;-70
2023/04/30 07:38:28;;;;;;;18.92;4.35;;;;;;;11.09;62.59;101749.94;4915450;29;20048;-70
2023/04/30 07:40:54;;;;;;;15.15;3.65;;;;;;;10.49;63.07;101757.91;4915743;29;20154;-70
2023/04/30 07:43:21;;;;;;;16.05;3.70;;;;;;;10.97;61.27;101755.44;4916585;29;20052;-71
2023/04/30 07:45:48;;;;;;;13.43;3.67;;;;;;;10.52;61.62;101754.16;4915074;29;20052;-71
2023/04/30 07:48:16;;;;;;;15.90;3.67;;;;;;;10.72;59.71;101753.22;4915812;29;20052;-71
2023/04/30 07:50:42;;;;;;;21.27;4.75;;;;;;;10.92;58.91;101757.66;4914606;29;20063;-71
2023/04/30 07:53:09;;;;;;;15.20;3.40;;;;;;;11.07;56.96;101757.31;4916363;29;20052;-72
2023/04/30 07:55:35;;;;;;;9.48;3.13;;;;;;;10.19;58.26;101764.09;4915105;29;20044;-72
2023/04/30 07:58:03;;;;;;;13.18;3.40;;;;;;;10.66;57.35;101761.84;4914945;29;20048;-70
2023/04/30 08:00:30;;;;;;;18.00;3.63;;;;;;;10.80;55.48;101760.63;4915737;29;20092;-71
2023/04/30 08:02:59;;;;;;;10.40;3.08;;;;;;;11.29;53.67;101761.56;4914046;29;20056;-71
2023/04/30 08:05:26;;;;;;;11.10;3.10;;;;;;;11.78;52.72;101755.22;4915247;29;20398;-69
2023/04/30 08:07:53;;;;;;;13.38;3.92;;;;;;;11.51;53.16;101755.06;4915266;29;20056;-71
2023/04/30 08:10:19;;;;;;;13.90;3.50;;;;;;;11.90;52.42;101756.78;4914937;29;20054;-71
2023/04/30 08:12:46;;;;;;;9.93;3.10;;;;;;;12.06;50.50;101758.88;4914743;29;20052;-70
2023/04/30 08:15:12;;;;;;;15.73;2.83;;;;;;;12.37;48.70;101764.88;4914359;29;20052;-72
2023/04/30 08:17:39;;;;;;;9.35;2.80;;;;;;;12.81;47.46;101767.84;4915867;29;20416;-69
2023/04/30 08:20:06;;;;;;;10.45;2.50;;;;;;;12.24;46.50;101764.34;4915073;29;20055;-71
2023/04/30 08:22:33;;;;;;;9.65;2.70;;;;;;;12.65;46.07;101771.13;4913792;29;20048;-71
2023/04/30 08:25:00;;;;;;;30.90;10.55;;;;;;;12.50;46.46;101764.56;4915019;29;20078;-71
2023/04/30 08:27:29;;;;;;;11.00;4.47;;;;;;;12.34;44.68;101765.16;4914354;29;20162;-72
2023/04/30 08:29:56;;;;;;;11.85;3.47;;;;;;;12.69;44.17;101760.06;4914578;29;20417;-71
2023/04/30 08:32:22;;;;;;;10.40;3.80;;;;;;;12.32;44.59;101769.88;4914950;29;20052;-71
2023/04/30 08:34:50;;;;;;;12.05;3.30;;;;;;;12.65;43.86;101764.91;4914599;29;20064;-71
2023/04/30 08:37:17;;;;;;;8.70;3.03;;;;;;;13.37;43.00;101767.81;4914751;29;20409;-71
2023/04/30 08:39:43;;;;;;;7.05;2.88;;;;;;;12.70;44.06;101767.19;4914055;29;20478;-72
2023/04/30 08:42:13;;;;;;;12.30;2.47;;;;;;;13.58;42.92;101773.72;4915154;29;20482;-71
2023/04/30 08:44:42;;;;;;;12.23;3.47;;;;;;;13.62;43.99;101764.31;4913868;29;20211;-70
2023/04/30 08:47:12;;;;;;;12.75;3.78;;;;;;;13.97;43.07;101758.06;4905084;29;20513;-71
2023/04/30 08:49:39;;;;;;;9.07;3.55;;;;;;;13.52;43.21;101766.25;4913786;29;20466;-71
2023/04/30 08:52:07;;;;;;;11.40;2.92;;;;;;;14.49;41.78;101760.75;4913935;29;20140;-70
2023/04/30 08:54:35;;;;;;;6.85;3.17;;;;;;;13.59;43.70;101767.31;4913181;29;20055;-70
2023/04/30 08:57:03;;;;;;;11.10;3.70;;;;;;;14.17;42.36;101756.03;4914507;29;20399;-71
2023/04/30 08:59:30;;;;;;;5.53;2.78;;;;;;;13.80;43.02;101754.41;4914149;29;20472;-72
2023/04/30 09:01:58;;;;;;;9.95;2.88;;;;;;;14.25;41.67;101768.72;4914656;29;20067;-71
2023/04/30 09:04:25;;;;;;;10.85;3.13;;;;;;;13.79;41.51;101759.97;4914112;29;20465;-72
2023/04/30 09:06:57;;;;;;;9.35;3.03;;;;;;;14.27;39.49;101755.91;4913149;29;20048;-71
2023/04/30 09:09:29;;;;;;;11.10;2.47;;;;;;;14.65;41.47;101762.69;4914038;29;20048;-70
2023/04/30 09:12:13;;;;;;;8.32;2.97;;;;;;;14.50;39.22;101773.28;4913733;29;20056;-70
2023/04/30 09:15:04;;;;;;;9.77;3.40;;;;;;;14.44;39.25;101764.97;4913562;29;20386;-73
2023/04/30 09:17:33;;;;;;;13.10;4.03;;;;;;;14.34;40.02;101767.78;4913368;29;20139;-76
2023/04/30 09:20:26;;;;;;;9.43;3.40;;;;;;;15.21;38.69;101765.81;4913317;29;20534;-75
2023/04/30 09:23:06;;;;;;;6.40;2.55;;;;;;;15.25;36.60;101761.75;4909815;29;20123;-74
2023/04/30 09:25:39;;;;;;;7.28;2.38;;;;;;;14.29;37.04;101770.97;4913417;29;20478;-76
2023/04/30 09:28:10;;;;;;;7.80;2.60;;;;;;;15.00;35.82;101767.09;4912830;29;20601;-75
2023/04/30 09:30:38;;;;;;;7.45;2.25;;;;;;;14.85;34.54;101765.19;4889780;29;20057;-75
2023/04/30 09:33:05;;;;;;;5.75;2.30;;;;;;;15.09;33.99;101767.13;4886914;29;20071;-75
2023/04/30 09:35:38;;;;;;;8.32;2.55;;;;;;;15.06;33.73;101771.00;4893751;29;20135;-74
2023/04/30 09:38:05;;;;;;;6.60;2.33;;;;;;;14.57;33.40;101770.78;4895180;29;20059;-77
2023/04/30 09:40:36;;;;;;;9.80;2.13;;;;;;;15.34;37.18;101770.75;4897081;29;20048;-79
2023/04/30 09:43:03;;;;;;;6.20;2.08;;;;;;;16.07;37.12;101762.66;4898042;29;20429;-77
2023/04/30 09:45:40;;;;;;;8.77;2.05;;;;;;;16.23;36.38;101767.22;4908986;29;20067;-73
2023/04/30 09:48:10;;;;;;;9.85;2.10;;;;;;;16.40;37.52;101773.41;4901141;29;20047;-73
2023/04/30 09:50:43;;;;;;;9.40;2.22;;;;;;;16.06;34.89;101773.69;4896447;29;20053;-74
2023/04/30 09:53:16;;;;;;;6.80;2.13;;;;;;;15.10;37.05;101772.38;4899701;29;20056;-68
2023/04/30 09:55:46;;;;;;;11.40;2.60;;;;;;;14.14;38.71;101768.97;4897196;29;20056;-69
2023/04/30 09:58:14;;;;;;;9.77;1.95;;;;;;;15.81;33.95;101759.28;4895660;29;20060;-73
2023/04/30 10:00:43;;;;;;;12.75;2.08;;;;;;;15.70;36.81;101757.78;4899928;29;20520;-69
2023/04/30 10:03:14;;;;;;;8.32;2.03;;;;;;;15.54;35.22;101750.47;4879193;29;20109;-69
2023/04/30 10:05:47;;;;;;;11.63;2.42;;;;;;;15.39;36.34;101762.97;4885433;29;20056;-72
2023/04/30 10:08:23;;;;;;;7.28;2.13;;;;;;;15.02;36.20;101756.13;4887493;29;20052;-73
2023/04/30 10:10:55;;;;;;;9.60;2.47;;;;;;;15.95;35.24;101753.19;4886570;29;20131;-72
2023/04/30 10:13:27;;;;;;;7.90;3.47;;;;;;;15.51;34.04;101744.56;4888564;29;20075;-72
2023/04/30 10:15:58;;;;;;;7.57;2.13;;;;;;;16.06;34.23;101744.75;4889941;29;20131;-73
2023/04/30 10:18:32;;;;;;;11.25;2.13;;;;;;;17.18;32.96;101747.38;4889872;29;20145;-73
2023/04/30 10:21:02;;;;;;;5.80;2.25;;;;;;;15.98;33.31;101749.31;4890802;29;20064;-72
2023/04/30 10:23:29;;;;;;;7.35;2.25;;;;;;;15.99;33.05;101742.91;4890856;29;20059;-72
2023/04/30 10:25:57;;;;;;;5.53;1.95;;;;;;;16.31;33.42;101747.41;4880736;29;20112;-72
2023/04/30 10:28:24;;;;;;;6.57;2.03;;;;;;;15.75;34.68;101735.66;4889055;29;20049;-73
2023/04/30 10:30:51;;;;;;;5.25;1.73;;;;;;;15.81;35.83;101740.34;4896910;29;20395;-73
2023/04/30 10:33:24;;;;;;;6.38;2.00;;;;;;;14.81;34.60;101747.59;4904579;29;20075;-73
2023/04/30 10:36:03;;;;;;;8.90;2.08;;;;;;;15.81;35.03;101743.06;4903005;29;20060;-73
2023/04/30 10:38:32;;;;;;;6.55;2.60;;;;;;;15.59;34.51;101734.59;4903525;29;20052;-73
2023/04/30 10:41:02;;;;;;;6.32;2.33;;;;;;;15.71;32.64;101730.56;4905041;29;20064;-72
2023/04/30 10:43:30;;;;;;;5.32;2.28;;;;;;;16.16;33.83;101733.75;4903115;29;20111;-73
2023/04/30 10:45:57;;;;;;;8.32;2.60;;;;;;;15.36;35.34;101733.53;4901196;29;20466;-74
2023/04/30 10:48:25;;;;;;;6.07;2.33;;;;;;;15.28;36.10;101731.69;4901777;29;20131;-74
2023/04/30 10:50:55;;;;;;;7.82;2.00;;;;;;;15.32;36.72;101727.63;4903585;29;20135;-74
2023/04/30 10:53:24;;;;;;;6.68;2.35;;;;;;;15.13;34.98;101717.97;4905704;29;20068;-72
2023/04/30 10:56:10;;;;;;;9.60;2.72;;;;;;;15.17;37.19;101727.44;4904797;29;20052;-73
2023/04/30 10:58:38;;;;;;;5.10;2.22;;;;;;;14.99;36.26;101714.06;4903874;29;20049;-73
2023/04/30 11:01:07;;;;;;;11.57;2.45;;;;;;;14.64;39.11;101730.47;4904115;29;20049;-74
2023/04/30 11:03:35;;;;;;;5.90;2.45;;;;;;;14.63;37.42;101726.91;4922803;29;20052;-72
2023/04/30 11:06:18;;;;;;;8.95;2.78;;;;;;;14.61;37.31;101723.53;4926837;29;20398;-72
2023/04/30 11:08:46;;;;;;;9.60;2.65;;;;;;;14.35;39.64;101720.03;4923444;29;20052;-73
2023/04/30 11:11:22;;;;;;;16.05;4.63;;;;;;;14.58;39.43;101717.59;4925023;29;20052;-73
2023/04/30 11:13:59;;;;;;;11.90;2.60;;;;;;;14.93;38.32;101725.53;4927968;29;20143;-72
2023/04/30 11:16:33;;;;;;;9.30;2.67;;;;;;;15.05;37.70;101717.09;4931586;29;20048;-72
2023/04/30 11:19:10;;;;;;;7.82;2.35;;;;;;;15.12;36.85;101712.72;4933803;29;20116;-72
2023/04/30 11:21:41;;;;;;;7.93;2.25;;;;;;;15.38;37.25;101708.03;4913329;29;20048;-72
2023/04/30 11:24:07;;;;;;;6.00;2.60;;;;;;;15.32;37.54;101713.28;4929246;29;20054;-74
2023/04/30 11:27:04;;;;;;;13.15;2.53;;;;;;;14.80;36.13;101706.22;4932187;29;20055;-73
2023/04/30 11:29:31;;;;;;;7.45;2.40;;;;;;;15.61;37.62;101710.94;4924535;29;20107;-73
2023/04/30 11:32:03;;;;;;;8.63;2.60;;;;;;;16.84;35.58;101707.94;4927402;29;20080;-74